createdAt,value
2023-04-16T00:02:00.856Z,96728.00
2023-04-16T00:04:27.923Z,96722.00
2023-04-16T00:06:55.350Z,96734.00
2023-04-16T00:09:22.219Z,96724.00
2023-04-16T00:11:49.012Z,96725.00
2023-04-16T00:14:15.923Z,96729.00
2023-04-16T00:16:42.764Z,96722.00
2023-04-16T00:19:09.864Z,96728.00
2023-04-16T00:21:36.880Z,96728.00
2023-04-16T00:24:03.765Z,96728.00
2023-04-16T00:26:30.618Z,96733.00
2023-04-16T00:28:57.404Z,96731.00
2023-04-16T00:31:33.031Z,96733.00
2023-04-16T00:34:00.700Z,96730.00
2023-04-16T00:36:28.506Z,96728.00
2023-04-16T00:38:56.440Z,96723.00
2023-04-16T00:41:23.730Z,96727.00
2023-04-16T00:43:51.467Z,96728.00
2023-04-16T00:46:21.208Z,96732.00
2023-04-16T00:48:49.005Z,96731.00
2023-04-16T00:51:16.571Z,96731.00
2023-04-16T00:53:44.706Z,96732.00
2023-04-16T00:56:12.916Z,96736.00
2023-04-16T00:58:40.202Z,96744.00
2023-04-16T01:01:07.048Z,96733.00
2023-04-16T01:03:47.670Z,96745.00
2023-04-16T01:06:17.081Z,96744.00
2023-04-16T01:08:45.118Z,96743.00
2023-04-16T01:11:12.131Z,96739.00
2023-04-16T01:13:39.507Z,96744.00
2023-04-16T01:16:08.363Z,96747.00
2023-04-16T01:18:36.746Z,96750.00
2023-04-16T01:21:04.893Z,96747.00
2023-04-16T01:23:32.154Z,96752.00
2023-04-16T01:25:59.034Z,96744.00
2023-04-16T01:28:25.840Z,96754.00
2023-04-16T01:30:52.727Z,96760.00
2023-04-16T01:33:19.749Z,96741.00
2023-04-16T01:35:46.624Z,96746.00
2023-04-16T01:38:13.427Z,96757.00
2023-04-16T01:40:40.286Z,96751.00
2023-04-16T01:43:07.129Z,96748.00
2023-04-16T01:45:35.984Z,96742.00
2023-04-16T01:48:04.209Z,96736.00
2023-04-16T01:50:31.527Z,96757.00
2023-04-16T01:52:58.348Z,96740.00
2023-04-16T01:55:25.217Z,96769.00
2023-04-16T01:57:52.030Z,96763.00
2023-04-16T02:00:18.867Z,96765.00
2023-04-16T02:02:46.451Z,96766.00
2023-04-16T02:05:13.446Z,96766.00
2023-04-16T02:07:40.187Z,96771.00
2023-04-16T02:10:08.904Z,96771.00
2023-04-16T02:12:35.975Z,96782.00
2023-04-16T02:15:03.364Z,96775.00
2023-04-16T02:17:30.221Z,96769.00
2023-04-16T02:19:57.031Z,96765.00
2023-04-16T02:22:23.907Z,96783.00
2023-04-16T02:24:51.144Z,96785.00
2023-04-16T02:27:17.954Z,96786.00
2023-04-16T02:29:44.787Z,96785.00
2023-04-16T02:32:11.707Z,96790.00
2023-04-16T02:34:40.109Z,96792.00
2023-04-16T02:37:07.004Z,96775.00
2023-04-16T02:39:33.818Z,96783.00
2023-04-16T02:42:02.570Z,96779.00
2023-04-16T02:44:29.391Z,96778.00
2023-04-16T02:46:56.150Z,96782.00
2023-04-16T02:49:22.980Z,96779.00
2023-04-16T02:51:50.020Z,96784.00
2023-04-16T02:54:16.822Z,96789.00
2023-04-16T02:56:43.582Z,96783.00
2023-04-16T02:59:10.581Z,96782.00
2023-04-16T03:01:37.654Z,96790.00
2023-04-16T03:04:04.841Z,96782.00
2023-04-16T03:06:31.621Z,96786.00
2023-04-16T03:08:58.456Z,96782.00
2023-04-16T03:11:25.302Z,96787.00
2023-04-16T03:13:52.143Z,96795.00
2023-04-16T03:16:18.982Z,96788.00
2023-04-16T03:18:45.867Z,96796.00
2023-04-16T03:21:12.702Z,96776.00
2023-04-16T03:23:39.521Z,96780.00
2023-04-16T03:26:06.519Z,96795.00
2023-04-16T03:28:33.280Z,96805.00
2023-04-16T03:31:00.069Z,96797.00
2023-04-16T03:33:27.069Z,96806.00
2023-04-16T03:35:58.035Z,96806.00
2023-04-16T03:38:28.301Z,96807.00
2023-04-16T03:40:55.112Z,96820.00
2023-04-16T03:43:21.862Z,96821.00
2023-04-16T03:45:48.831Z,96825.00
2023-04-16T03:48:15.916Z,96821.00
2023-04-16T03:50:47.433Z,96822.00
2023-04-16T03:53:15.432Z,96830.00
2023-04-16T03:55:42.557Z,96830.00
2023-04-16T03:58:09.691Z,96831.00
2023-04-16T04:00:36.461Z,96828.00
2023-04-16T04:03:03.439Z,96835.00
2023-04-16T04:05:30.618Z,96839.00
2023-04-16T04:07:57.393Z,96840.00
2023-04-16T04:10:24.167Z,96847.00
2023-04-16T04:12:50.970Z,96862.00
2023-04-16T04:15:17.904Z,96854.00
2023-04-16T04:17:44.700Z,96863.00
2023-04-16T04:20:12.277Z,96857.00
2023-04-16T04:22:39.049Z,96867.00
2023-04-16T04:25:06.372Z,96870.00
2023-04-16T04:27:33.148Z,96864.00
2023-04-16T04:29:59.991Z,96870.00
2023-04-16T04:32:26.860Z,96869.00
2023-04-16T04:34:53.651Z,96867.00
2023-04-16T04:37:20.531Z,96881.00
2023-04-16T04:39:47.429Z,96872.00
2023-04-16T04:42:15.324Z,96879.00
2023-04-16T04:44:42.116Z,96876.00
2023-04-16T04:47:08.876Z,96887.00
2023-04-16T04:49:35.943Z,96877.00
2023-04-16T04:52:02.834Z,96885.00
2023-04-16T04:54:32.954Z,96888.00
2023-04-16T04:56:59.749Z,96889.00
2023-04-16T04:59:26.607Z,96883.00
2023-04-16T05:01:53.439Z,96884.00
2023-04-16T05:04:20.514Z,96893.00
2023-04-16T05:06:47.361Z,96889.00
2023-04-16T05:09:14.134Z,96890.00
2023-04-16T05:11:42.183Z,96896.00
2023-04-16T05:14:09.225Z,96898.00
2023-04-16T05:16:37.782Z,96895.00
2023-04-16T05:19:04.891Z,96899.00
2023-04-16T05:21:31.773Z,96915.00
2023-04-16T05:23:58.924Z,96911.00
2023-04-16T05:26:25.715Z,96912.00
2023-04-16T05:28:52.530Z,96920.00
2023-04-16T05:31:19.471Z,96921.00
2023-04-16T05:33:46.369Z,96922.00
2023-04-16T05:36:13.152Z,96933.00
2023-04-16T05:38:39.916Z,96935.00
2023-04-16T05:41:06.701Z,96936.00
2023-04-16T05:43:33.503Z,96939.00
2023-04-16T05:46:00.352Z,96938.00
2023-04-16T05:48:27.197Z,96933.00
2023-04-16T05:50:53.997Z,96938.00
2023-04-16T05:53:20.821Z,96936.00
2023-04-16T05:55:47.764Z,96929.00
2023-04-16T05:58:14.581Z,96937.00
2023-04-16T06:00:41.433Z,96931.00
2023-04-16T06:03:08.429Z,96942.00
2023-04-16T06:05:35.502Z,96932.00
2023-04-16T06:08:02.349Z,96936.00
2023-04-16T06:10:29.322Z,96950.00
2023-04-16T06:12:56.257Z,96946.00
2023-04-16T06:15:22.999Z,96942.00
2023-04-16T06:17:51.025Z,96942.00
2023-04-16T06:20:18.109Z,96940.00
2023-04-16T06:22:44.903Z,96945.00
2023-04-16T06:25:11.709Z,96951.00
2023-04-16T06:27:38.482Z,96959.00
2023-04-16T06:30:11.225Z,96955.00
2023-04-16T06:32:38.087Z,96953.00
2023-04-16T06:35:05.546Z,96961.00
2023-04-16T06:37:32.367Z,96962.00
2023-04-16T06:39:59.119Z,96961.00
2023-04-16T06:42:26.031Z,96966.00
2023-04-16T06:44:52.954Z,96966.00
2023-04-16T06:47:19.746Z,96967.00
2023-04-16T06:49:46.956Z,96968.00
2023-04-16T06:52:13.708Z,96969.00
2023-04-16T06:54:40.613Z,96977.00
2023-04-16T06:57:07.406Z,96977.00
2023-04-16T06:59:34.168Z,96982.00
2023-04-16T07:02:01.339Z,96973.00
2023-04-16T07:04:28.305Z,96980.00
2023-04-16T07:06:55.137Z,96988.00
2023-04-16T07:09:21.915Z,96988.00
2023-04-16T07:11:48.813Z,96986.00
2023-04-16T07:14:15.996Z,96984.00
2023-04-16T07:16:42.827Z,96984.00
2023-04-16T07:19:09.853Z,96991.00
2023-04-16T07:21:36.901Z,96982.00
2023-04-16T07:24:03.945Z,96973.00
2023-04-16T07:26:30.820Z,96983.00
2023-04-16T07:28:57.684Z,96978.00
2023-04-16T07:31:24.476Z,96981.00
2023-04-16T07:33:51.616Z,96984.00
2023-04-16T07:36:18.446Z,96981.00
2023-04-16T07:38:45.316Z,96986.00
2023-04-16T07:41:12.939Z,96985.00
2023-04-16T07:43:39.681Z,96983.00
2023-04-16T07:46:06.783Z,96982.00
2023-04-16T07:48:33.629Z,96988.00
2023-04-16T07:51:00.468Z,97000.00
2023-04-16T07:53:27.297Z,96990.00
2023-04-16T07:55:54.055Z,97000.00
2023-04-16T07:58:20.870Z,97004.00
2023-04-16T08:00:49.212Z,97007.00
2023-04-16T08:03:18.261Z,97008.00
2023-04-16T08:05:45.316Z,97000.00
2023-04-16T08:08:12.144Z,97008.00
2023-04-16T08:10:39.724Z,97012.00
2023-04-16T08:13:06.542Z,97016.00
2023-04-16T08:15:33.394Z,97021.00
2023-04-16T08:18:00.351Z,97011.00
2023-04-16T08:20:27.594Z,97021.00
2023-04-16T08:22:54.867Z,97030.00
2023-04-16T08:25:23.624Z,97022.00
2023-04-16T08:27:50.947Z,97022.00
2023-04-16T08:30:17.853Z,97028.00
2023-04-16T08:32:44.780Z,97028.00
2023-04-16T08:35:12.187Z,97030.00
2023-04-16T08:37:39.035Z,97030.00
2023-04-16T08:40:06.881Z,97030.00
2023-04-16T08:42:40.815Z,97035.00
2023-04-16T08:45:16.748Z,97036.00
2023-04-16T08:47:51.441Z,97043.00
2023-04-16T08:50:24.903Z,97042.00
2023-04-16T08:52:53.397Z,97043.00
2023-04-16T08:55:40.917Z,97047.00
2023-04-16T08:58:15.432Z,97038.00
2023-04-16T09:00:43.580Z,97034.00
2023-04-16T09:03:11.216Z,97050.00
2023-04-16T09:05:39.083Z,97042.00
2023-04-16T09:08:47.241Z,97053.00
2023-04-16T09:11:29.192Z,97056.00
2023-04-16T09:13:56.418Z,97061.00
2023-04-16T09:16:25.018Z,97065.00
2023-04-16T09:18:52.670Z,97054.00
2023-04-16T09:21:23.335Z,97070.00
2023-04-16T09:23:52.885Z,97055.00
2023-04-16T09:26:21.826Z,97059.00
2023-04-16T09:28:51.305Z,97053.00
2023-04-16T09:31:19.324Z,97056.00
2023-04-16T09:34:09.350Z,97048.00
2023-04-16T09:36:36.952Z,97050.00
2023-04-16T09:39:04.289Z,97055.00
2023-04-16T09:41:36.170Z,97057.00
2023-04-16T09:44:05.226Z,97058.00
2023-04-16T09:46:36.107Z,97058.00
2023-04-16T09:49:13.739Z,97066.00
2023-04-16T09:51:50.841Z,97067.00
2023-04-16T09:54:17.658Z,97066.00
2023-04-16T09:56:46.813Z,97070.00
2023-04-16T09:59:23.489Z,97063.00
2023-04-16T10:01:53.343Z,97072.00
2023-04-16T10:04:52.076Z,97069.00
2023-04-16T10:07:20.082Z,97070.00
2023-04-16T10:09:49.211Z,97065.00
2023-04-16T10:12:16.660Z,97069.00
2023-04-16T10:14:43.964Z,97068.00
2023-04-16T10:17:10.928Z,97070.00
2023-04-16T10:19:38.270Z,97067.00
2023-04-16T10:22:05.529Z,97068.00
2023-04-16T10:24:34.948Z,97071.00
2023-04-16T10:27:02.495Z,97069.00
2023-04-16T10:29:31.613Z,97064.00
2023-04-16T10:31:59.618Z,97067.00
2023-04-16T10:34:27.019Z,97063.00
2023-04-16T10:36:54.902Z,97054.00
2023-04-16T10:39:28.375Z,97059.00
2023-04-16T10:42:13.803Z,97061.00
2023-04-16T10:44:43.626Z,97065.00
2023-04-16T10:47:14.094Z,97060.00
2023-04-16T10:49:42.600Z,97056.00
2023-04-16T10:52:14.933Z,97057.00
2023-04-16T10:54:41.965Z,97059.00
2023-04-16T10:57:14.355Z,97057.00
2023-04-16T10:59:43.991Z,97068.00
2023-04-16T11:02:18.675Z,97070.00
2023-04-16T11:04:47.753Z,97064.00
2023-04-16T11:07:33.141Z,97070.00
2023-04-16T11:10:04.076Z,97063.00
2023-04-16T11:12:42.352Z,97060.00
2023-04-16T11:15:14.790Z,97053.00
2023-04-16T11:17:43.637Z,97067.00
2023-04-16T11:20:20.534Z,97059.00
2023-04-16T11:22:56.273Z,97068.00
2023-04-16T11:25:26.421Z,97063.00
2023-04-16T11:27:53.907Z,97065.00
2023-04-16T11:30:31.624Z,97059.00
2023-04-16T11:32:58.538Z,97065.00
2023-04-16T11:35:25.574Z,97059.00
2023-04-16T11:37:57.378Z,97067.00
2023-04-16T11:40:25.278Z,97062.00
2023-04-16T11:42:52.121Z,97062.00
2023-04-16T11:45:19.427Z,97061.00
2023-04-16T11:47:51.771Z,97059.00
2023-04-16T11:50:24.974Z,97062.00
2023-04-16T11:52:54.390Z,97068.00
2023-04-16T11:55:22.778Z,97063.00
2023-04-16T11:57:51.068Z,97065.00
2023-04-16T12:00:19.014Z,97064.00
2023-04-16T12:02:55.248Z,97063.00
2023-04-16T12:05:32.240Z,97074.00
2023-04-16T12:08:01.772Z,97065.00
2023-04-16T12:10:29.661Z,97067.00
2023-04-16T12:13:15.809Z,97063.00
2023-04-16T12:15:50.812Z,97063.00
2023-04-16T12:18:20.235Z,97067.00
2023-04-16T12:20:47.476Z,97065.00
2023-04-16T12:23:28.974Z,97065.00
2023-04-16T12:25:59.623Z,97066.00
2023-04-16T12:28:38.315Z,97070.00
2023-04-16T12:31:06.299Z,97067.00
2023-04-16T12:33:33.207Z,97065.00
2023-04-16T12:36:00.532Z,97058.00
2023-04-16T12:38:28.006Z,97058.00
2023-04-16T12:40:57.251Z,97067.00
2023-04-16T12:43:25.135Z,97059.00
2023-04-16T12:45:52.397Z,97068.00
2023-04-16T12:48:19.292Z,97068.00
2023-04-16T12:50:46.499Z,97066.00
2023-04-16T12:53:13.367Z,97062.00
2023-04-16T12:55:40.251Z,97063.00
2023-04-16T12:58:11.121Z,97061.00
2023-04-16T13:00:40.324Z,97061.00
2023-04-16T13:03:07.249Z,97062.00
2023-04-16T13:05:34.480Z,97068.00
2023-04-16T13:08:01.300Z,97073.00
2023-04-16T13:10:28.191Z,97065.00
2023-04-16T13:12:54.976Z,97063.00
2023-04-16T13:15:21.829Z,97058.00
2023-04-16T13:17:48.667Z,97061.00
2023-04-16T13:20:15.730Z,97064.00
2023-04-16T13:22:42.549Z,97064.00
2023-04-16T13:25:10.034Z,97051.00
2023-04-16T13:27:36.846Z,97055.00
2023-04-16T13:30:04.015Z,97058.00
2023-04-16T13:32:31.177Z,97052.00
2023-04-16T13:34:58.155Z,97062.00
2023-04-16T13:37:24.946Z,97055.00
2023-04-16T13:39:51.901Z,97062.00
2023-04-16T13:42:18.728Z,97062.00
2023-04-16T13:44:48.793Z,97063.00
2023-04-16T13:47:16.130Z,97066.00
2023-04-16T13:49:42.911Z,97066.00
2023-04-16T13:52:09.703Z,97069.00
2023-04-16T13:54:36.477Z,97069.00
2023-04-16T13:57:03.359Z,97073.00
2023-04-16T13:59:30.230Z,97072.00
2023-04-16T14:01:57.711Z,97079.00
2023-04-16T14:04:24.822Z,97067.00
2023-04-16T14:06:51.747Z,97076.00
2023-04-16T14:09:18.666Z,97081.00
2023-04-16T14:11:45.498Z,97072.00
2023-04-16T14:14:12.424Z,97075.00
2023-04-16T14:16:39.333Z,97073.00
2023-04-16T14:19:06.176Z,97069.00
2023-04-16T14:21:32.937Z,97075.00
2023-04-16T14:23:59.737Z,97083.00
2023-04-16T14:26:26.545Z,97070.00
2023-04-16T14:28:53.389Z,97077.00
2023-04-16T14:31:20.655Z,97074.00
2023-04-16T14:33:47.553Z,97070.00
2023-04-16T14:36:14.356Z,97074.00
2023-04-16T14:38:43.157Z,97077.00
2023-04-16T14:41:11.988Z,97085.00
2023-04-16T14:43:41.123Z,97081.00
2023-04-16T14:46:08.028Z,97083.00
2023-04-16T14:48:34.826Z,97090.00
2023-04-16T14:51:01.867Z,97086.00
2023-04-16T14:53:29.054Z,97081.00
2023-04-16T14:55:59.081Z,97099.00
2023-04-16T14:58:26.517Z,97088.00
2023-04-16T15:00:53.490Z,97084.00
2023-04-16T15:03:20.758Z,97094.00
2023-04-16T15:05:54.760Z,97088.00
2023-04-16T15:08:22.800Z,97087.00
2023-04-16T15:10:50.420Z,97087.00
2023-04-16T15:13:17.526Z,97091.00
2023-04-16T15:15:45.492Z,97092.00
2023-04-16T15:18:12.416Z,97095.00
2023-04-16T15:20:39.319Z,97093.00
2023-04-16T15:23:06.156Z,97099.00
2023-04-16T15:25:33.135Z,97096.00
2023-04-16T15:27:59.962Z,97091.00
2023-04-16T15:30:26.860Z,97105.00
2023-04-16T15:32:55.038Z,97096.00
2023-04-16T15:35:22.057Z,97104.00
2023-04-16T15:37:48.870Z,97103.00
2023-04-16T15:40:18.740Z,97102.00
2023-04-16T15:42:45.566Z,97100.00
2023-04-16T15:45:12.341Z,97109.00
2023-04-16T15:47:41.536Z,97109.00
2023-04-16T15:50:08.959Z,97106.00
2023-04-16T15:52:36.345Z,97103.00
2023-04-16T15:55:04.334Z,97111.00
2023-04-16T15:57:31.708Z,97114.00
2023-04-16T16:02:30.423Z,97112.00
2023-04-16T16:04:57.440Z,97113.00
2023-04-16T16:07:25.163Z,97118.00
2023-04-16T16:09:53.024Z,97120.00
2023-04-16T16:12:19.949Z,97119.00
2023-04-16T16:14:46.761Z,97119.00
2023-04-16T16:17:13.715Z,97117.00
2023-04-16T16:19:40.748Z,97127.00
2023-04-16T16:22:09.320Z,97129.00
2023-04-16T16:24:36.229Z,97127.00
2023-04-16T16:27:03.217Z,97126.00
2023-04-16T16:29:29.993Z,97131.00
2023-04-16T16:31:56.855Z,97133.00
2023-04-16T16:34:23.725Z,97138.00
2023-04-16T16:36:50.591Z,97135.00
2023-04-16T16:39:17.438Z,97133.00
2023-04-16T16:41:45.037Z,97133.00
2023-04-16T16:44:11.892Z,97140.00
2023-04-16T16:46:38.759Z,97143.00
2023-04-16T16:49:06.865Z,97147.00
2023-04-16T16:51:33.924Z,97141.00
2023-04-16T16:54:00.872Z,97141.00
2023-04-16T16:56:28.038Z,97143.00
2023-04-16T16:58:55.000Z,97144.00
2023-04-16T17:01:21.826Z,97147.00
2023-04-16T17:03:48.857Z,97145.00
2023-04-16T17:06:16.124Z,97146.00
2023-04-16T17:08:43.069Z,97146.00
2023-04-16T17:11:09.890Z,97154.00
2023-04-16T17:13:36.664Z,97149.00
2023-04-16T17:16:03.618Z,97158.00
2023-04-16T17:18:30.428Z,97143.00
2023-04-16T17:20:57.181Z,97155.00
2023-04-16T17:23:23.980Z,97156.00
2023-04-16T17:25:50.887Z,97165.00
2023-04-16T17:28:17.861Z,97172.00
2023-04-16T17:30:46.025Z,97178.00
2023-04-16T17:33:12.809Z,97170.00
2023-04-16T17:35:40.871Z,97180.00
2023-04-16T17:38:07.646Z,97183.00
2023-04-16T17:40:34.396Z,97189.00
2023-04-16T17:43:01.148Z,97184.00
2023-04-16T17:45:28.017Z,97191.00
2023-04-16T17:47:54.874Z,97188.00
2023-04-16T17:50:21.778Z,97189.00
2023-04-16T17:52:48.732Z,97183.00
2023-04-16T17:55:16.642Z,97189.00
2023-04-16T17:57:44.662Z,97192.00
2023-04-16T18:00:12.552Z,97182.00
2023-04-16T18:02:40.925Z,97203.00
2023-04-16T18:05:09.061Z,97197.00
2023-04-16T18:07:36.470Z,97212.00
2023-04-16T18:10:03.498Z,97207.00
2023-04-16T18:12:30.329Z,97211.00
2023-04-16T18:14:57.634Z,97212.00
2023-04-16T18:17:24.449Z,97209.00
2023-04-16T18:19:51.451Z,97220.00
2023-04-16T18:22:18.390Z,97219.00
2023-04-16T18:24:45.324Z,97227.00
2023-04-16T18:27:12.661Z,97224.00
2023-04-16T18:29:40.559Z,97230.00
2023-04-16T18:32:09.914Z,97232.00
2023-04-16T18:34:38.700Z,97232.00
2023-04-16T18:37:05.508Z,97247.00
2023-04-16T18:39:36.729Z,97246.00
2023-04-16T18:42:03.961Z,97241.00
2023-04-16T18:44:30.844Z,97248.00
2023-04-16T18:46:57.731Z,97243.00
2023-04-16T18:49:25.508Z,97265.00
2023-04-16T18:51:55.715Z,97258.00
2023-04-16T18:54:23.114Z,97260.00
2023-04-16T18:56:49.875Z,97265.00
2023-04-16T18:59:16.727Z,97271.00
2023-04-16T19:01:43.537Z,97268.00
2023-04-16T19:04:10.500Z,97277.00
2023-04-16T19:06:37.543Z,97277.00
2023-04-16T19:09:04.418Z,97280.00
2023-04-16T19:11:31.387Z,97275.00
2023-04-16T19:13:58.184Z,97282.00
2023-04-16T19:16:25.297Z,97291.00
2023-04-16T19:18:52.100Z,97284.00
2023-04-16T19:21:18.988Z,97288.00
2023-04-16T19:23:46.289Z,97287.00
2023-04-16T19:26:13.286Z,97288.00
2023-04-16T19:28:42.622Z,97293.00
2023-04-16T19:31:09.737Z,97289.00
2023-04-16T19:33:36.667Z,97289.00
2023-04-16T19:36:03.688Z,97290.00
2023-04-16T19:38:33.544Z,97287.00
2023-04-16T19:41:00.426Z,97294.00
2023-04-16T19:43:30.598Z,97300.00
2023-04-16T19:45:58.081Z,97293.00
2023-04-16T19:48:24.947Z,97293.00
2023-04-16T19:50:51.807Z,97296.00
2023-04-16T19:53:18.739Z,97300.00
2023-04-16T19:55:45.586Z,97297.00
2023-04-16T19:58:14.405Z,97302.00
2023-04-16T20:00:41.965Z,97305.00
2023-04-16T20:03:09.304Z,97306.00
2023-04-16T20:05:36.377Z,97305.00
2023-04-16T20:08:03.275Z,97307.00
2023-04-16T20:10:31.427Z,97308.00
2023-04-16T20:12:58.664Z,97313.00
2023-04-16T20:15:25.685Z,97308.00
2023-04-16T20:17:53.228Z,97312.00
2023-04-16T20:20:22.501Z,97320.00
2023-04-16T20:22:49.418Z,97310.00
2023-04-16T20:25:18.743Z,97312.00
2023-04-16T20:27:45.552Z,97317.00
2023-04-16T20:30:13.475Z,97314.00
2023-04-16T20:32:40.263Z,97314.00
2023-04-16T20:35:10.627Z,97304.00
2023-04-16T20:37:42.884Z,97301.00
2023-04-16T20:40:10.673Z,97314.00
2023-04-16T20:42:37.582Z,97307.00
2023-04-16T20:45:04.914Z,97310.00
2023-04-16T20:47:34.493Z,97307.00
2023-04-16T20:50:02.647Z,97310.00
2023-04-16T20:52:29.586Z,97308.00
2023-04-16T20:54:56.369Z,97303.00
2023-04-16T20:57:23.436Z,97306.00
2023-04-16T20:59:50.373Z,97305.00
2023-04-16T21:02:17.612Z,97307.00
2023-04-16T21:04:44.624Z,97308.00
2023-04-16T21:07:11.521Z,97307.00
2023-04-16T21:09:38.289Z,97309.00
2023-04-16T21:12:05.468Z,97317.00
2023-04-16T21:14:32.240Z,97306.00
2023-04-16T21:16:59.280Z,97305.00
2023-04-16T21:19:26.140Z,97314.00
2023-04-16T21:21:52.927Z,97316.00
2023-04-16T21:24:19.809Z,97312.00
2023-04-16T21:26:46.742Z,97314.00
2023-04-16T21:29:13.774Z,97311.00
2023-04-16T21:31:40.771Z,97308.00
2023-04-16T21:34:07.653Z,97312.00
2023-04-16T21:36:35.041Z,97307.00
2023-04-16T21:39:02.114Z,97312.00
2023-04-16T21:41:28.966Z,97314.00
2023-04-16T21:43:55.782Z,97316.00
2023-04-16T21:46:22.938Z,97318.00
2023-04-16T21:48:50.028Z,97316.00
2023-04-16T21:51:18.090Z,97309.00
2023-04-16T21:53:45.253Z,97319.00
2023-04-16T21:56:12.088Z,97319.00
2023-04-16T21:58:39.159Z,97314.00
2023-04-16T22:01:07.746Z,97316.00
2023-04-16T22:03:39.900Z,97318.00
2023-04-16T22:06:08.125Z,97312.00
2023-04-16T22:08:35.004Z,97314.00
2023-04-16T22:11:03.427Z,97318.00
2023-04-16T22:13:36.638Z,97313.00
2023-04-16T22:16:04.164Z,97306.00
2023-04-16T22:18:32.814Z,97318.00
2023-04-16T22:21:00.787Z,97307.00
2023-04-16T22:23:27.617Z,97305.00
2023-04-16T22:25:56.777Z,97304.00
2023-04-16T22:28:23.960Z,97307.00
2023-04-16T22:30:51.199Z,97302.00
2023-04-16T22:33:18.196Z,97301.00
2023-04-16T22:35:45.541Z,97296.00
2023-04-16T22:38:13.013Z,97304.00
2023-04-16T22:40:39.814Z,97303.00
2023-04-16T22:43:06.645Z,97304.00
2023-04-16T22:45:34.545Z,97303.00
2023-04-16T22:48:01.365Z,97304.00
2023-04-16T22:50:31.027Z,97296.00
2023-04-16T22:52:57.974Z,97304.00
2023-04-16T22:55:24.773Z,97305.00
2023-04-16T22:57:51.669Z,97303.00
2023-04-16T23:00:19.379Z,97310.00
2023-04-16T23:02:46.470Z,97304.00
2023-04-16T23:05:13.409Z,97309.00
2023-04-16T23:07:40.467Z,97306.00
2023-04-16T23:10:08.644Z,97309.00
2023-04-16T23:12:37.334Z,97304.00
2023-04-16T23:15:06.455Z,97310.00
2023-04-16T23:17:34.850Z,97314.00
2023-04-16T23:20:01.937Z,97313.00
2023-04-16T23:22:28.825Z,97305.00
2023-04-16T23:24:55.553Z,97316.00
2023-04-16T23:27:22.358Z,97306.00
2023-04-16T23:29:49.231Z,97308.00
2023-04-16T23:32:16.289Z,97305.00
2023-04-16T23:34:43.164Z,97304.00
2023-04-16T23:37:09.997Z,97298.00
2023-04-16T23:39:36.889Z,97300.00
2023-04-16T23:42:03.778Z,97301.00
2023-04-16T23:44:30.636Z,97300.00
2023-04-16T23:46:57.534Z,97301.00
2023-04-16T23:49:24.635Z,97298.00
2023-04-16T23:51:51.483Z,97300.00
2023-04-16T23:54:18.640Z,97305.00
2023-04-16T23:56:45.506Z,97300.00
2023-04-16T23:59:12.753Z,97288.00
